Crooked Creek Research Lab Weather observations

Data are for 10 minute period ending at time listed.
 Day   Time    Ave.   Ave.  Ave.  Vector   Max.   Stn.    Total    Solar   Ave.   Snow 
  of    of     Air    Rel.  Wind   Wind    Wind   Baro.  Precip.   Rad.    Soil   Depth
Year   Day     Temp.  Hum.  Speed  Dir.    Gust   Pres.                    Temp.       
2015   (PST)    F      %     mph   deg.    mph     mb.     in.     W/m2     F      in. 
---------------------------------------------------------------------------------------  
 211   17:00   53.7    59    1.1    28      3.8   711.5    0.00      33    999.0    -0.7
 211   17:10   53.1    66    0.4    44      2.0   711.5    0.00      34    999.0    -0.7
 211   17:20   52.9    61    3.8    36     16.1   711.6    0.00      40    999.0    -0.5
 211   17:30   54.3    53    5.8   352     15.7   711.5    0.00      42    999.0    -0.7
 211   17:40   54.3    54    4.3    26     16.1   711.6    0.00      42    999.0    -0.7
 211   17:50   54.2    53    2.4    31      8.3   711.5    0.00      35    999.0    -0.6
 211   18:00   53.4    66    2.0   254      3.9   711.5    0.00      30    999.0    -0.8
 211   18:10   52.7    69    2.5   136      4.2   711.5    0.00      28    999.0    -0.7
 211   18:20   52.6    68    1.8   210      3.4   711.4    0.00      21    999.0    -0.7
 211   18:30   52.8    68    3.2   230      7.5   711.3    0.00      12    999.0    -0.7
 211   18:40   51.6    73    2.1   177      6.1   711.5    0.00       5    999.0    -0.7
 211   18:50   51.3    76    0.0   170      0.7   711.6    0.00       2    999.0    -0.7
 211   19:00   50.9    78    0.7   189      2.9   711.4    0.00       1    999.0    -0.7
 211   19:10   50.8    81    0.1   138      1.0   711.6    0.00       0    999.0    -0.6
 211   19:20   50.8    80    0.2   106      1.0   711.7    0.00       0    999.0    -0.6
 211   19:30   52.3    63    5.7    24     16.0   711.7    0.00       0    999.0    -0.7
 211   19:40   52.9    58    3.7     9     10.8   711.6    0.00       0    999.0    -0.7
 211   19:50   52.9    60    2.8   114      6.1   711.7    0.00       0    999.0    -0.7
 211   20:00   52.9    62    1.0    96      4.2   711.6    0.00       0    999.0    -0.7
 211   20:10   52.1    65    0.8    67      2.3   711.7    0.00       0    999.0    -0.7
 211   20:20   51.5    71    0.8   114      2.3   711.7    0.00       0    999.0    -0.7
 211   20:30   50.9    74    0.9   115      2.8   711.7    0.00       0    999.0    -0.7
 211   20:40   51.6    66    1.2    93      2.9   711.8    0.00       0    999.0    -0.6
 211   20:50   52.4    61    1.3    35      4.9   711.8    0.00       0    999.0    -0.7
 211   21:00   52.6    61    1.3    38      4.9   711.8    0.00       0    999.0    -0.7
 211   21:10   52.3    62    1.0    95      3.5   711.8    0.00       0    999.0    -0.7
 211   21:20   52.8    58    2.3    76      8.0   711.7    0.00       0    999.0    -0.7
 211   21:30   54.4    51    2.4    40      9.0   711.7    0.00       0    999.0    -0.7
 211   21:40   54.1    55    0.9   306      2.7   711.6    0.00       0    999.0    -0.8
 211   21:50   52.8    61    2.3   129      3.9   711.6    0.00       0    999.0    -0.8
 211   22:00   52.0    66    0.5   169      2.5   711.6    0.00       0    999.0    -0.7
 211   22:10   51.7    66    1.5   212      4.0   711.7    0.00       0    999.0    -0.7
 211   22:20   53.0    56    1.9   152      5.1   711.9    0.00       0    999.0    -0.6
 211   22:30   53.1    59    2.4   334      6.3   711.2    0.00       0    999.0    -0.8
 211   22:40   52.2    61    4.1   312     10.5   711.1    0.00       0    999.0    -0.7
 211   22:50   52.5    60    2.0   104      4.4   711.0    0.00       0    999.0    -0.8
 211   23:00   52.3    62    1.9   116      3.9   711.0    0.00       0    999.0    -0.8
 211   23:10   51.3    68    0.4   124      2.3   711.0    0.00       0    999.0    -0.8
 211   23:20   50.5    71    0.2   121      1.4   711.1    0.00       0    999.0    -0.7
 211   23:30   50.0    75    1.2   124      2.7   711.0    0.00       0    999.0    -0.7
 211   23:40   49.8    76    0.5   125      1.8   711.0    0.00       0    999.0    -0.7
 211   23:50   49.7    78    0.4   125      1.5   710.8    0.00       0    999.0    -0.7
 212    0:00   49.1    78    0.0     0      0.0   710.8    0.00       0    999.0    -0.6
 212    0:10   48.8    78    0.1   137      1.1   710.8    0.00       0    999.0    -0.7
 212    0:20   48.3    76    0.8   128      3.3   710.8    0.00       0    999.0    -0.7
 212    0:30   47.2    76    1.4   120      3.3   710.7    0.00       0    999.0    -0.7
 212    0:40   46.9    76    1.1   118      2.3   710.6    0.00       0    999.0    -0.7
 212    0:50   46.7    77    0.4   230      2.4   710.5    0.00       0    999.0    -0.6
 212    1:00   46.8    78    0.0     0      0.0   710.5    0.00       0    999.0    -0.7
 212    1:10   47.0    77    0.0   198      0.2   710.6    0.00       0    999.0    -0.6
 212    1:20   47.5    78    0.0   184      0.4   710.6    0.00       0    999.0    -0.7
 212    1:30   47.7    79    0.0     0      0.0   710.4    0.00       0    999.0    -0.7
 212    1:40   47.6    79    0.0     0      0.0   710.4    0.00       0    999.0    -0.7
 212    1:50   47.7    78    0.0     0      0.0   710.4    0.00       0    999.0    -0.7
 212    2:00   47.9    77    0.0     0      0.0   710.4    0.00       0    999.0    -0.6
 212    2:10   47.9    79    0.0     0      0.0   710.4    0.00       0    999.0    -0.7
 212    2:20   47.6    77    0.0     0      0.0   710.3    0.00       0    999.0    -0.6
 212    2:30   47.5    79    0.3   216      2.1   710.4    0.00       0    999.0    -0.7
 212    2:40   47.2    78    0.0     0      0.0   710.4    0.00       0    999.0    -0.7
 212    2:50   47.0    76    0.8   128      2.1   710.4    0.00       0    999.0    -0.8
 212    3:00   46.2    79    0.5   141      2.6   710.4    0.00       0    999.0    -0.7
 212    3:10   46.0    79    1.2   233      3.7   710.5    0.00       0    999.0    -0.7
 212    3:20   46.0    80    0.5   164      1.5   710.5    0.00       0    999.0    -0.8
 212    3:30   45.5    81    0.3   200      1.4   710.5    0.00       0    999.0    -0.6
 212    3:40  999.0   999  999.0   999    999.0   999.0   999.00     999    999.0   999.0
 212    3:50  999.0   999  999.0   999    999.0   999.0   999.00     999    999.0   999.0
 212    4:00  999.0   999  999.0   999    999.0   999.0   999.00     999    999.0   999.0
 212    4:10  999.0   999  999.0   999    999.0   999.0   999.00     999    999.0   999.0
 212    4:20  999.0   999  999.0   999    999.0   999.0   999.00     999    999.0   999.0
 212    4:30  999.0   999  999.0   999    999.0   999.0   999.00     999    999.0   999.0
 212    4:40  999.0   999  999.0   999    999.0   999.0   999.00     999    999.0   999.0
 212    4:50  999.0   999  999.0   999    999.0   999.0   999.00     999    999.0   999.0
 212    5:00  999.0   999  999.0   999    999.0   999.0   999.00     999    999.0   999.0
 212    5:10  999.0   999  999.0   999    999.0   999.0   999.00     999    999.0   999.0
 212    5:20  999.0   999  999.0   999    999.0   999.0   999.00     999    999.0   999.0
 212    5:30  999.0   999  999.0   999    999.0   999.0   999.00     999    999.0   999.0
 212    5:40  999.0   999  999.0   999    999.0   999.0   999.00     999    999.0   999.0
 212    5:50  999.0   999  999.0   999    999.0   999.0   999.00     999    999.0   999.0
 212    6:00  999.0   999  999.0   999    999.0   999.0   999.00     999    999.0   999.0
 212    6:10  999.0   999  999.0   999    999.0   999.0   999.00     999    999.0   999.0
 212    6:20  999.0   999  999.0   999    999.0   999.0   999.00     999    999.0   999.0
 212    6:30  999.0   999  999.0   999    999.0   999.0   999.00     999    999.0   999.0
 212    6:40  999.0   999  999.0   999    999.0   999.0   999.00     999    999.0   999.0
 212    6:50  999.0   999  999.0   999    999.0   999.0   999.00     999    999.0   999.0
 212    7:00  999.0   999  999.0   999    999.0   999.0   999.00     999    999.0   999.0
 212    7:10  999.0   999  999.0   999    999.0   999.0   999.00     999    999.0   999.0
 212    7:20  999.0   999  999.0   999    999.0   999.0   999.00     999    999.0   999.0
 212    7:30  999.0   999  999.0   999    999.0   999.0   999.00     999    999.0   999.0
 212    7:40  999.0   999  999.0   999    999.0   999.0   999.00     999    999.0   999.0
 212    7:50  999.0   999  999.0   999    999.0   999.0   999.00     999    999.0   999.0
 212    8:00  999.0   999  999.0   999    999.0   999.0   999.00     999    999.0   999.0
 212    8:10  999.0   999  999.0   999    999.0   999.0   999.00     999    999.0   999.0
 212    8:20  999.0   999  999.0   999    999.0   999.0   999.00     999    999.0   999.0
 212    8:30  999.0   999  999.0   999    999.0   999.0   999.00     999    999.0   999.0
 212    8:40  999.0   999  999.0   999    999.0   999.0   999.00     999    999.0   999.0
 212    8:50   55.7    49    3.0    17      5.3   711.1    0.00     168    999.0     0.0
 212    9:00   56.1    50    3.7    29      7.7   711.1    0.00     222    999.0    -0.5
 212    9:10   56.8    48    4.3    39      8.6   711.2    0.00     175    999.0    -0.6
 212    9:20   56.7    47    3.4    39      7.5   711.2    0.00     163    999.0    -0.6
 212    9:30   56.9    46    3.7    32      8.8   711.2    0.00     158    999.0    -0.6
 212    9:40   57.0    47    2.3    37      7.9   711.3    0.00     199    999.0    -0.6
 212    9:50   58.0    45    2.8    24      5.7   711.3    0.00     315    999.0    -0.6
 212   10:00   58.0    44    3.0    42      7.2   711.3    0.00     210    999.0    -0.7
 212   10:10   57.8    45    3.1    35      6.5   711.4    0.00     201    999.0    -0.7
 212   10:20   57.7    43    3.8    40      8.8   711.4    0.00     264    999.0    -0.6
 212   10:30   58.9    44    2.4    23      6.1   711.4    0.00     451    999.0    -0.7
 212   10:40   59.9    41    3.2    22      7.4   711.4    0.00     463    999.0    -0.6
 212   10:50   60.0    41    2.3    97      6.1   711.4    0.00     314    999.0    -0.7
 212   11:00   59.7    42    2.6    68     10.4   711.4    0.00     313    999.0    -0.6
 212   11:10   59.8    43    2.0    91      5.7   711.4    0.00     348    999.0    -0.7
 212   11:20   60.4    42    1.5   304      5.0   711.3    0.00     326    999.0    -0.7
 212   11:30   60.0    43    3.4   145      7.5   711.4    0.00     316    999.0    -0.7
 212   11:40   59.3    44    2.7   133      6.5   711.4    0.00     237    999.0    -0.6
 212   11:50   59.1    45    3.9   148      9.3   711.5    0.00     260    999.0    -0.6
 212   12:00   58.5    45    3.6   134      8.4   711.5    0.00     123    999.0    -0.6
 212   12:10   58.1    47    3.3   138      6.6   711.5    0.00     132    999.0    -0.6
 212   12:20   58.3    46    3.2   135      7.1   711.5    0.00     229    999.0    -0.6
 212   12:30   58.6    47    2.0   151      4.1   711.5    0.00     155    999.0    -0.6
 212   12:40   58.0    52    2.1   195      6.2   711.5    0.00     112    999.0    -0.7
 212   12:50   55.4    63    3.8   216      8.2   711.5    0.00     117    999.0    -0.7
 212   13:00   54.1    68    2.7   304      5.3   711.2    0.00     225    999.0    -0.5
 212   13:10   55.2    66    3.2   332      5.6   711.0    0.00     240    999.0    -0.6
 212   13:20   56.0    62    4.2    25     10.7   711.0    0.00     353    999.0    -0.6
 212   13:30   57.8    57    3.8    32     11.7   711.0    0.00     590    999.0    -0.6
 212   13:40   59.6    52    3.8    28     10.7   710.9    0.00     934    999.0    -0.5
 212   13:50   62.0    47    3.9     2      8.1   710.9    0.00     799    999.0    -0.7
 212   14:00   60.7    45    4.7     6     11.0   710.7    0.00     581    999.0    -0.7
 212   14:10   61.8    44    3.4    22      9.9   710.8    0.00     532    999.0    -0.7
 212   14:20   61.5    42    4.7   102     10.2   710.7    0.00     331    999.0    -0.7
 212   14:30   61.4    42    5.4   151     13.3   710.6    0.00     641    999.0    -0.6
 212   14:40   62.4    40    3.4   135     11.8   710.5    0.00     561    999.0    -0.7
 212   14:50   61.7    41    4.8   137     10.4   710.5    0.00     371    999.0    -0.7
 212   15:00   61.5    41    5.4   119     11.1   710.4    0.00     627    999.0    -0.6
 212   15:10   62.3    40    5.7   142     12.9   710.3    0.00     700    999.0    -0.6
 212   15:20   62.5    40    6.8   123     15.3   710.2    0.00     733    999.0    -0.6
 212   15:30   63.0    40    5.7   127     12.3   710.2    0.00     606    999.0    -0.6
 212   15:40   63.4    39    4.0   130      9.3   710.2    0.00     612    999.0    -0.7
 212   15:50   63.0    39    4.5   135     12.9   710.0    0.00     581    999.0    -0.7
 212   16:00   63.2    39    4.5   119     11.0   710.0    0.00     454    999.0    -0.7
 212   16:10   62.4    40    5.5   135     11.8   709.9    0.00     400    999.0    -0.7
 212   16:20   61.9    40    4.8   143     11.8   709.9    0.00     333    999.0    -0.6
 212   16:30   62.6    40    3.0   153      7.0   709.8    0.00     438    999.0    -0.7
 212   16:40   62.8    39    2.6   116      9.3   709.8    0.00     292    999.0    -0.7
 212   16:50   62.1    41    3.0   146      6.9   709.7    0.00     180    999.0    -0.7

Return to Crooked Creek Research Lab graphs page.


Western Regional Climate Center,wrcc@dri.edu